Time;durP1;ratioP1;P1;durP2;ratioP2;P2;SDS_P1;SDS_P2;PMS_P1;PMS_P2;Temp;Humidity;BMP_temperature;BMP_pressure;BME280_temperature;BME280_humidity;BME280_pressure;Samples;Min_cycle;Max_cycle;Signal;HPM_P1;HPM_P2
2022/11/02 00:01:19;;;;;;;11.97;4.47;;;9.30;68.70;;;;;;4983249;28;45938;-66
2022/11/02 00:03:44;;;;;;;9.33;5.27;;;9.20;69.70;;;;;;4964916;28;46450;-66
2022/11/02 00:06:10;;;;;;;12.23;5.50;;;9.20;69.90;;;;;;4981779;28;48491;-67
2022/11/02 00:08:36;;;;;;;8.60;4.37;;;9.20;69.90;;;;;;4967115;28;46626;-67
2022/11/02 00:11:01;;;;;;;9.50;4.37;;;9.10;69.10;;;;;;4965869;28;46587;-67
2022/11/02 00:13:27;;;;;;;9.23;4.20;;;9.10;70.30;;;;;;4967425;28;46795;-68
2022/11/02 00:15:53;;;;;;;12.13;5.00;;;9.00;70.30;;;;;;4965860;28;48101;-66
2022/11/02 00:18:19;;;;;;;8.10;4.23;;;9.00;70.40;;;;;;4963773;28;46596;-67
2022/11/02 00:20:44;;;;;;;10.27;4.60;;;9.00;70.40;;;;;;4964535;28;46304;-67
2022/11/02 00:23:12;;;;;;;7.10;3.93;;;8.90;70.30;;;;;;4966269;28;45998;-67
2022/11/02 00:25:45;;;;;;;9.53;3.80;;;8.90;70.40;;;;;;4966053;28;48100;-67
2022/11/02 00:28:12;;;;;;;12.83;3.60;;;8.90;70.40;;;;;;4984862;28;45762;-67
2022/11/02 00:30:38;;;;;;;10.10;4.57;;;8.70;69.40;;;;;;4958072;28;46263;-66
2022/11/02 00:33:03;;;;;;;9.83;3.63;;;8.70;70.50;;;;;;4967634;28;46392;-66
2022/11/02 00:35:29;;;;;;;12.30;4.07;;;8.70;70.50;;;;;;4981826;28;46516;-67
2022/11/02 00:37:55;;;;;;;12.80;4.30;;;8.60;70.70;;;;;;4983250;28;46454;-67
2022/11/02 00:40:21;;;;;;;5.37;3.67;;;8.40;69.80;;;;;;4984765;28;46398;-67
2022/11/02 00:42:46;;;;;;;7.80;4.03;;;8.40;70.90;;;;;;4983600;28;46589;-68
2022/11/02 00:45:12;;;;;;;9.50;3.60;;;8.40;70.70;;;;;;4984869;28;47563;-67
2022/11/02 00:47:38;;;;;;;12.73;4.47;;;8.50;70.40;;;;;;4981362;28;45858;-68
2022/11/02 00:50:04;;;;;;;11.63;3.47;;;8.60;68.90;;;;;;4965681;28;46331;-67
2022/11/02 00:52:30;;;;;;;13.60;4.07;;;8.50;69.90;;;;;;4986639;28;46515;-67
2022/11/02 00:54:56;;;;;;;10.53;4.07;;;8.50;69.90;;;;;;4982373;28;46578;-67
2022/11/02 00:57:21;;;;;;;10.77;4.93;;;8.50;69.90;;;;;;4980784;28;46375;-66
2022/11/02 00:59:47;;;;;;;14.23;4.03;;;8.60;68.60;;;;;;4981475;28;46228;-67
2022/11/02 01:02:13;;;;;;;8.40;3.50;;;8.60;69.60;;;;;;4983508;28;46092;-67
2022/11/02 01:04:39;;;;;;;10.67;4.73;;;8.60;69.40;;;;;;4964878;28;47639;-67
2022/11/02 01:07:04;;;;;;;7.43;4.93;;;8.60;69.40;;;;;;4966384;28;45948;-67
2022/11/02 01:09:30;;;;;;;9.50;4.50;;;8.70;68.30;;;;;;4967635;28;46487;-67
2022/11/02 01:11:56;;;;;;;7.87;4.70;;;8.70;69.30;;;;;;4974686;28;46539;-67
2022/11/02 01:14:22;;;;;;;13.53;6.00;;;8.70;69.30;;;;;;4963624;28;48128;-67
2022/11/02 01:16:48;;;;;;;11.47;5.40;;;8.70;69.40;;;;;;4959010;28;46438;-68
2022/11/02 01:19:14;;;;;;;13.70;4.80;;;8.80;69.40;;;;;;4981288;28;46375;-67
2022/11/02 01:21:40;;;;;;;9.63;5.47;;;8.90;68.20;;;;;;4981045;28;46422;-68
2022/11/02 01:24:06;;;;;;;9.37;5.30;;;8.90;69.10;;;;;;4983569;28;46463;-67
2022/11/02 01:26:32;;;;;;;13.97;5.67;;;9.00;68.90;;;;;;4983699;28;46385;-66
2022/11/02 01:28:58;;;;;;;8.50;5.43;;;9.10;68.80;;;;;;4965853;28;46377;-67
2022/11/02 01:31:24;;;;;;;11.50;5.67;;;9.20;67.50;;;;;;4980635;28;46446;-68
2022/11/02 01:33:49;;;;;;;11.10;4.93;;;9.30;68.50;;;;;;4982551;28;46254;-67
2022/11/02 01:36:20;;;;;;;9.07;5.43;;;9.30;68.50;;;;;;4983838;28;46316;-67
2022/11/02 01:38:47;;;;;;;11.07;4.70;;;9.20;68.70;;;;;;4981638;28;46614;-67
2022/11/02 01:41:14;;;;;;;12.60;4.80;;;9.30;67.60;;;;;;4965664;28;46422;-67
2022/11/02 01:43:45;;;;;;;9.57;5.00;;;9.30;68.80;;;;;;4981179;28;46571;-66
2022/11/02 01:46:10;;;;;;;8.53;4.50;;;9.20;69.00;;;;;;4958360;28;46378;-67
2022/11/02 01:48:47;;;;;;;7.27;4.80;;;9.10;69.40;;;;;;4965966;28;46616;-67
2022/11/02 01:51:57;;;;;;;7.03;3.90;;;9.00;68.80;;;;;;4964555;28;45914;-67
2022/11/02 01:54:26;;;;;;;10.73;5.00;;;9.10;69.80;;;;;;4981107;28;46444;-68
2022/11/02 01:56:58;;;;;;;10.00;4.50;;;9.20;69.50;;;;;;4958853;28;46505;-68
2022/11/02 01:59:29;;;;;;;11.10;4.23;;;9.30;67.90;;;;;;4979271;28;46354;-68
2022/11/02 02:01:55;;;;;;;9.70;4.40;;;9.30;69.00;;;;;;4963021;28;46507;-68
2022/11/02 02:04:22;;;;;;;11.13;4.40;;;9.30;69.30;;;;;;4981674;28;46348;-67
2022/11/02 02:06:49;;;;;;;9.37;5.00;;;9.20;69.40;;;;;;4981031;28;45860;-68
2022/11/02 02:09:15;;;;;;;8.23;4.20;;;9.20;69.30;;;;;;4959396;28;46428;-67
2022/11/02 02:11:41;;;;;;;7.70;4.33;;;9.30;68.10;;;;;;4979608;28;46293;-67
2022/11/02 02:14:13;;;;;;;14.80;4.10;;;9.40;68.70;;;;;;4963057;28;47816;-68
2022/11/02 02:16:57;;;;;;;7.70;4.30;;;9.50;68.30;;;;;;4964733;28;46420;-68
2022/11/02 02:19:59;;;;;;;5.30;3.40;;;9.70;66.70;;;;;;4966008;28;46623;-68
2022/11/02 02:22:30;;;;;;;11.03;4.63;;;9.70;67.70;;;;;;4964246;28;45941;-68
2022/11/02 02:25:14;;;;;;;9.30;4.23;;;9.70;67.50;;;;;;4982601;28;46633;-67
2022/11/02 02:28:01;;;;;;;11.40;3.80;;;9.80;67.20;;;;;;4982522;28;46205;-67
2022/11/02 02:30:30;;;;;;;12.33;4.60;;;10.00;65.00;;;;;;4965096;28;46423;-67
2022/11/02 02:32:59;;;;;;;9.23;3.97;;;10.00;65.90;;;;;;4964355;28;46530;-67
2022/11/02 02:35:42;;;;;;;16.87;4.50;;;10.10;66.10;;;;;;4959747;28;47677;-67
2022/11/02 02:38:21;;;;;;;17.77;6.40;;;10.10;66.00;;;;;;4963087;28;47037;-68
2022/11/02 02:40:53;;;;;;;11.63;4.70;;;10.00;65.60;;;;;;4980296;28;46351;-67
2022/11/02 02:43:28;;;;;;;15.83;5.57;;;10.00;66.80;;;;;;4964282;28;45830;-68
2022/11/02 02:46:00;;;;;;;12.40;6.60;;;10.00;67.00;;;;;;4956752;28;48076;-67
2022/11/02 02:48:26;;;;;;;9.90;5.90;;;9.90;68.00;;;;;;4980518;28;46503;-67
2022/11/02 02:51:28;;;;;;;10.73;5.10;;;9.80;68.50;;;;;;4980412;28;46463;-67
2022/11/02 02:54:32;;;;;;;11.20;5.53;;;9.60;69.40;;;;;;4885387;29;45884;-67
2022/11/02 02:57:06;;;;;;;16.00;6.30;;;9.40;69.90;;;;;;4950749;28;48121;-68
2022/11/02 02:59:44;;;;;;;12.30;6.37;;;9.10;70.30;;;;;;4981262;28;46387;-68
2022/11/02 03:02:32;;;;;;;13.37;6.33;;;9.00;71.20;;;;;;4961933;28;46284;-67
2022/11/02 03:04:58;;;;;;;8.80;5.60;;;8.90;71.70;;;;;;4963679;28;46426;-67
2022/11/02 03:07:30;;;;;;;12.73;6.13;;;8.80;72.00;;;;;;4963422;28;47758;-67
2022/11/02 03:10:16;;;;;;;14.83;6.10;;;8.70;71.50;;;;;;4975442;28;46505;-67
2022/11/02 03:13:02;;;;;;;26.90;6.90;;;8.60;72.50;;;;;;4981774;28;46281;-67
2022/11/02 03:16:11;;;;;;;11.27;6.70;;;8.60;73.70;;;;;;4960489;28;46439;-67
2022/11/02 03:18:47;;;;;;;10.90;6.30;;;8.50;72.60;;;;;;4960486;28;49375;-67
2022/11/02 03:21:22;;;;;;;16.77;7.33;;;8.50;72.50;;;;;;4962750;28;46386;-68
2022/11/02 03:24:06;;;;;;;9.27;6.50;;;8.50;72.40;;;;;;4963742;28;46421;-67
2022/11/02 03:26:42;;;;;;;18.73;7.90;;;8.50;72.20;;;;;;4978900;28;46325;-67
2022/11/02 03:29:22;;;;;;;13.73;7.70;;;8.60;72.20;;;;;;4964424;28;47535;-67
2022/11/02 03:32:04;;;;;;;14.93;7.53;;;8.50;71.00;;;;;;4979120;28;46361;-67
2022/11/02 03:34:47;;;;;;;17.20;7.93;;;8.50;72.20;;;;;;4963829;28;46499;-67
2022/11/02 03:37:24;;;;;;;18.00;9.17;;;8.50;72.20;;;;;;4980108;28;45961;-67
2022/11/02 03:39:53;;;;;;;24.50;9.53;;;8.60;71.50;;;;;;4958370;28;47742;-67
2022/11/02 03:42:23;;;;;;;23.77;10.07;;;8.50;72.50;;;;;;4966756;28;46479;-67
2022/11/02 03:44:55;;;;;;;24.07;10.40;;;8.60;72.50;;;;;;4978765;28;46451;-67
2022/11/02 03:47:22;;;;;;;21.10;9.90;;;8.20;72.30;;;;;;4963353;28;46611;-67
2022/11/02 03:49:50;;;;;;;29.47;9.87;;;8.60;71.70;;;;;;4962553;28;46510;-66
2022/11/02 03:52:22;;;;;;;19.83;9.63;;;8.60;72.70;;;;;;4980992;28;46376;-67
2022/11/02 03:55:16;;;;;;;25.50;10.50;;;8.60;72.80;;;;;;4963360;28;46349;-68
2022/11/02 03:57:50;;;;;;;24.63;9.80;;;8.70;72.70;;;;;;4964674;28;46693;-68
2022/11/02 04:00:22;;;;;;;24.93;10.97;;;8.70;72.40;;;;;;4979266;28;47790;-67
2022/11/02 04:02:52;;;;;;;24.17;10.77;;;8.70;72.30;;;;;;4977588;28;45868;-69
2022/11/02 04:05:18;;;;;;;26.73;11.03;;;8.80;72.30;;;;;;4979406;28;46801;-68
2022/11/02 04:10:33;;;;;;;28.53;10.90;;;8.90;72.40;;;;;;4978611;28;46364;-68
2022/11/02 04:15:42;;;;;;;24.77;10.60;;;8.90;72.60;;;;;;4980623;28;46506;-68
2022/11/02 04:20:53;;;;;;;19.60;10.03;;;9.00;71.80;;;;;;4980531;28;46487;-68
2022/11/02 04:26:04;;;;;;;24.80;11.27;;;9.10;73.10;;;;;;4979515;28;46333;-69
2022/11/02 04:28:30;;;;;;;22.00;10.00;;;9.10;73.10;;;;;;4977286;28;46588;-71
2022/11/02 04:31:00;;;;;;;20.63;11.10;;;9.10;73.20;;;;;;4979189;28;47203;-67
2022/11/02 04:33:33;;;;;;;25.43;10.37;;;9.20;73.40;;;;;;4971254;28;46593;-67
2022/11/02 04:36:04;;;;;;;22.03;10.50;;;9.20;73.10;;;;;;4992179;28;45945;-67
2022/11/02 04:38:40;;;;;;;27.57;10.30;;;9.30;72.90;;;;;;4973744;28;46100;-66
2022/11/02 04:43:55;;;;;;;22.17;9.57;;;9.50;72.30;;;;;;4992182;28;46465;-67
2022/11/02 04:46:23;;;;;;;23.00;10.03;;;9.60;72.00;;;;;;4974314;28;46378;-67
2022/11/02 04:48:49;;;;;;;22.57;8.90;;;9.60;71.90;;;;;;4978911;28;46236;-66
2022/11/02 04:51:15;;;;;;;24.30;9.37;;;9.60;70.90;;;;;;5001407;28;46477;-67
2022/11/02 04:53:41;;;;;;;19.80;8.77;;;9.70;71.90;;;;;;4984036;28;45865;-66
2022/11/02 04:56:07;;;;;;;19.57;8.90;;;9.80;71.90;;;;;;4998001;28;45983;-66
2022/11/02 04:58:33;;;;;;;22.00;8.47;;;9.90;72.10;;;;;;4979927;28;45882;-67
2022/11/02 05:01:15;;;;;;;22.30;9.53;;;9.90;71.20;;;;;;4978430;28;46456;-67
2022/11/02 05:03:52;;;;;;;16.33;8.70;;;10.00;71.20;;;;;;4968359;28;46478;-67
2022/11/02 05:06:19;;;;;;;25.77;8.53;;;10.10;70.90;;;;;;4966175;28;46568;-67
2022/11/02 05:08:45;;;;;;;16.77;7.90;;;10.20;70.70;;;;;;4966287;28;46340;-67
2022/11/02 05:11:11;;;;;;;25.23;8.33;;;10.20;69.60;;;;;;4983218;28;46413;-66
2022/11/02 05:13:39;;;;;;;14.73;6.90;;;10.30;70.70;;;;;;4959360;28;46545;-67
2022/11/02 05:16:05;;;;;;;13.70;6.80;;;10.30;70.50;;;;;;4982767;28;46400;-66
2022/11/02 05:18:31;;;;;;;11.73;6.53;;;10.40;70.70;;;;;;4977152;28;46434;-67
2022/11/02 05:20:59;;;;;;;15.97;6.60;;;10.40;69.70;;;;;;4965013;28;47577;-66
2022/11/02 05:23:26;;;;;;;15.47;7.80;;;10.40;70.90;;;;;;4965309;28;46334;-67
2022/11/02 05:25:55;;;;;;;13.10;6.80;;;10.30;71.10;;;;;;4981218;28;46445;-67
2022/11/02 05:28:21;;;;;;;20.20;7.37;;;10.20;71.50;;;;;;4966950;28;46455;-67
2022/11/02 05:30:47;;;;;;;15.60;7.10;;;10.20;71.00;;;;;;4980355;28;48086;-67
2022/11/02 05:33:13;;;;;;;18.43;7.37;;;10.10;72.10;;;;;;4965970;28;46570;-68
2022/11/02 05:35:38;;;;;;;11.77;5.83;;;10.10;72.30;;;;;;4967565;28;46488;-70
2022/11/02 05:38:04;;;;;;;15.30;5.67;;;10.00;72.40;;;;;;4982521;28;46563;-68
2022/11/02 05:40:30;;;;;;;25.00;7.80;;;10.00;72.90;;;;;;4961773;28;48515;-68
2022/11/02 05:43:00;;;;;;;20.23;8.87;;;9.90;74.30;;;;;;4983291;28;46443;-68
2022/11/02 05:45:26;;;;;;;17.90;6.43;;;9.80;74.50;;;;;;4982149;28;46458;-68
2022/11/02 05:47:52;;;;;;;13.47;5.97;;;9.80;74.50;;;;;;4981013;28;46409;-70
2022/11/02 05:50:18;;;;;;;23.30;8.80;;;9.80;73.50;;;;;;4981556;28;48801;-69
2022/11/02 05:52:43;;;;;;;23.30;10.90;;;9.80;74.60;;;;;;4962330;28;46415;-68
2022/11/02 05:55:09;;;;;;;16.20;10.07;;;9.70;74.50;;;;;;4965139;28;46376;-68
2022/11/02 05:57:35;;;;;;;15.83;6.13;;;9.70;74.70;;;;;;4984489;28;46379;-68
2022/11/02 06:00:02;;;;;;;9.93;5.87;;;9.60;74.70;;;;;;4964865;28;46410;-71
2022/11/02 06:02:28;;;;;;;20.33;7.07;;;9.60;74.80;;;;;;4964334;28;46490;-68
2022/11/02 06:04:53;;;;;;;15.50;6.17;;;9.60;74.80;;;;;;4981803;28;46434;-69
2022/11/02 06:07:19;;;;;;;13.83;5.67;;;9.60;74.80;;;;;;4957036;28;46552;-69
2022/11/02 06:09:44;;;;;;;15.50;6.07;;;9.60;74.70;;;;;;4964543;28;47964;-69
2022/11/02 06:12:10;;;;;;;11.57;6.53;;;9.70;74.50;;;;;;4964711;28;46467;-68
2022/11/02 06:14:36;;;;;;;19.20;10.10;;;9.70;74.20;;;;;;4981308;28;46455;-69
2022/11/02 06:17:01;;;;;;;19.73;7.73;;;9.80;74.00;;;;;;4982046;28;46523;-67
2022/11/02 06:19:28;;;;;;;25.03;10.03;;;10.10;71.10;;;;;;4965727;28;47836;-67
2022/11/02 06:21:54;;;;;;;15.43;7.43;;;10.10;72.20;;;;;;4964998;28;46317;-70
2022/11/02 06:24:19;;;;;;;11.87;8.07;;;10.30;71.70;;;;;;4963677;28;45805;-67
2022/11/02 06:26:45;;;;;;;18.10;7.10;;;10.40;71.30;;;;;;4983296;28;46032;-67
2022/11/02 06:29:11;;;;;;;17.60;7.53;;;10.50;71.00;;;;;;4965740;28;48972;-69
2022/11/02 06:31:37;;;;;;;20.97;9.67;;;10.60;69.60;;;;;;4962226;28;46445;-69
2022/11/02 06:34:03;;;;;;;14.63;6.53;;;10.80;70.70;;;;;;4965112;28;46410;-67
2022/11/02 06:36:28;;;;;;;11.93;6.80;;;10.90;70.50;;;;;;4981281;28;46389;-67
2022/11/02 06:38:54;;;;;;;16.10;9.30;;;11.00;70.20;;;;;;4963772;28;46829;-68
2022/11/02 06:41:20;;;;;;;14.43;6.07;;;11.10;69.00;;;;;;4963245;28;46385;-69
2022/11/02 06:43:45;;;;;;;19.20;9.07;;;11.20;69.90;;;;;;4979615;28;45927;-71
2022/11/02 06:46:11;;;;;;;21.20;6.17;;;11.30;69.70;;;;;;4982319;28;46448;-67
2022/11/02 06:48:37;;;;;;;19.30;5.30;;;11.40;69.70;;;;;;4980694;28;46482;-67
2022/11/02 06:51:04;;;;;;;10.03;5.70;;;11.30;68.80;;;;;;4980504;28;46414;-68
2022/11/02 06:53:29;;;;;;;15.87;7.37;;;11.40;69.90;;;;;;4963858;28;46708;-68
2022/11/02 06:55:57;;;;;;;13.73;6.70;;;11.40;69.70;;;;;;4964362;28;46475;-68
2022/11/02 06:58:23;;;;;;;19.60;6.60;;;11.50;70.00;;;;;;4980936;28;46718;-68
2022/11/02 07:00:55;;;;;;;13.33;7.07;;;11.50;69.10;;;;;;4979347;28;46353;-70
2022/11/02 07:03:20;;;;;;;11.17;6.73;;;11.60;70.30;;;;;;4980021;28;46493;-67
2022/11/02 07:05:53;;;;;;;15.23;7.07;;;11.70;70.20;;;;;;4965774;28;46347;-69
2022/11/02 07:08:19;;;;;;;13.00;7.60;;;11.90;69.70;;;;;;4981431;28;47422;-67
2022/11/02 07:10:45;;;;;;;15.00;6.80;;;12.00;69.40;;;;;;4979061;28;46410;-67
2022/11/02 07:13:11;;;;;;;13.13;7.10;;;12.10;69.10;;;;;;4963558;28;46488;-68
2022/11/02 07:15:38;;;;;;;9.73;5.50;;;12.20;69.00;;;;;;4958091;28;45875;-69
2022/11/02 07:18:05;;;;;;;10.13;5.23;;;12.10;69.30;;;;;;4965025;28;48713;-68
2022/11/02 07:20:31;;;;;;;12.10;6.00;;;12.00;69.80;;;;;;4980254;28;46588;-68
2022/11/02 07:22:59;;;;;;;13.53;5.43;;;11.90;70.50;;;;;;4964285;28;46346;-70
2022/11/02 07:25:26;;;;;;;11.10;5.43;;;11.90;71.00;;;;;;4964366;28;46477;-68
2022/11/02 07:27:53;;;;;;;8.60;5.27;;;12.00;70.80;;;;;;4964198;28;47890;-67
2022/11/02 07:30:19;;;;;;;13.13;5.17;;;12.10;70.50;;;;;;4961523;28;46669;-68
2022/11/02 07:32:45;;;;;;;10.13;5.50;;;12.30;70.50;;;;;;4979323;28;46447;-67
2022/11/02 07:35:13;;;;;;;8.90;4.20;;;12.40;70.20;;;;;;4979846;28;46349;-67
2022/11/02 07:37:39;;;;;;;9.67;4.37;;;12.60;69.80;;;;;;4963023;28;48078;-69
2022/11/02 07:40:06;;;;;;;10.17;4.53;;;12.80;69.40;;;;;;4981402;28;46462;-67
2022/11/02 07:42:32;;;;;;;8.60;3.87;;;12.90;69.20;;;;;;4979162;28;46515;-68
2022/11/02 07:44:58;;;;;;;7.30;3.00;;;12.90;69.30;;;;;;4963376;28;46279;-69
2022/11/02 07:47:24;;;;;;;10.77;3.67;;;13.00;69.30;;;;;;4980317;28;48608;-67
2022/11/02 07:49:49;;;;;;;7.10;3.63;;;13.00;69.30;;;;;;4963920;28;46271;-68
2022/11/02 07:52:15;;;;;;;9.20;4.30;;;13.10;69.10;;;;;;4980912;28;46461;-67
2022/11/02 07:54:41;;;;;;;12.30;4.53;;;13.20;68.80;;;;;;4979040;28;46570;-67
2022/11/02 07:57:07;;;;;;;17.50;3.90;;;13.30;68.40;;;;;;4963291;28;48025;-67
2022/11/02 07:59:32;;;;;;;4.90;2.77;;;13.60;67.00;;;;;;4963572;28;46413;-68
2022/11/02 08:01:58;;;;;;;7.33;3.10;;;13.60;67.90;;;;;;4980751;28;45920;-70
2022/11/02 08:04:24;;;;;;;11.07;3.60;;;13.70;67.80;;;;;;4959821;28;46715;-67
2022/11/02 08:06:50;;;;;;;6.03;2.43;;;13.60;67.90;;;;;;4964641;28;47950;-68
2022/11/02 08:09:15;;;;;;;17.93;3.27;;;13.70;68.20;;;;;;4965122;28;46350;-68
2022/11/02 08:11:41;;;;;;;10.80;3.03;;;13.70;67.00;;;;;;4983115;28;46502;-68
2022/11/02 08:14:07;;;;;;;7.30;2.33;;;13.60;68.90;;;;;;4982721;28;46462;-67
2022/11/02 08:16:33;;;;;;;6.97;2.50;;;13.60;68.40;;;;;;4982995;28;49065;-67
2022/11/02 08:18:58;;;;;;;13.30;3.50;;;13.60;68.30;;;;;;4982990;28;46375;-68
2022/11/02 08:21:25;;;;;;;4.33;2.70;;;13.60;67.10;;;;;;4984170;28;46364;-67
2022/11/02 08:23:50;;;;;;;6.17;2.63;;;13.60;67.80;;;;;;4982825;28;46345;-68
2022/11/02 08:26:16;;;;;;;9.43;2.70;;;13.60;67.70;;;;;;4966606;28;47833;-69
2022/11/02 08:28:42;;;;;;;8.67;3.73;;;13.60;67.70;;;;;;4966340;28;46482;-68
2022/11/02 08:31:14;;;;;;;8.80;3.23;;;13.60;66.70;;;;;;4981663;28;46570;-70
2022/11/02 08:33:41;;;;;;;13.67;2.60;;;13.60;67.80;;;;;;4963691;28;46511;-67
2022/11/02 08:36:07;;;;;;;11.00;2.53;;;13.70;68.90;;;;;;4967343;28;47935;-67
2022/11/02 08:38:32;;;;;;;9.63;3.40;;;13.60;67.00;;;;;;4965718;28;46661;-67
2022/11/02 08:40:58;;;;;;;6.17;2.40;;;13.50;66.90;;;;;;4965458;28;46417;-67
2022/11/02 08:43:24;;;;;;;10.60;2.77;;;14.00;67.30;;;;;;4983394;28;46620;-67
2022/11/02 08:45:50;;;;;;;6.80;2.40;;;13.70;66.20;;;;;;4982434;28;46430;-66
2022/11/02 08:48:15;;;;;;;12.63;2.33;;;13.80;66.00;;;;;;4966053;28;46440;-67
2022/11/02 08:50:41;;;;;;;7.10;2.23;;;13.80;65.80;;;;;;4965615;28;46470;-67
2022/11/02 08:53:07;;;;;;;12.33;2.47;;;13.90;65.60;;;;;;4982677;28;46393;-67
2022/11/02 08:55:33;;;;;;;8.87;2.57;;;14.10;65.20;;;;;;4965625;28;48271;-67
2022/11/02 08:57:59;;;;;;;11.00;2.43;;;14.20;64.20;;;;;;4964630;28;45905;-68
2022/11/02 09:00:28;;;;;;;9.80;2.20;;;14.30;62.80;;;;;;4966620;28;46637;-67
2022/11/02 09:03:05;;;;;;;6.57;2.43;;;14.40;63.90;;;;;;4964949;28;46459;-67
2022/11/02 09:05:33;;;;;;;16.50;2.30;;;14.50;63.30;;;;;;4981619;28;48084;-67
2022/11/02 09:08:04;;;;;;;9.70;2.70;;;14.80;62.40;;;;;;4958795;28;46396;-67
2022/11/02 09:10:32;;;;;;;8.43;2.20;;;14.90;60.80;;;;;;4966363;28;46492;-68
2022/11/02 09:12:59;;;;;;;11.03;1.87;;;14.80;61.70;;;;;;4985372;28;46384;-68
2022/11/02 09:15:25;;;;;;;12.13;2.63;;;14.70;61.00;;;;;;4966066;28;47428;-68
2022/11/02 09:17:50;;;;;;;6.10;1.67;;;14.30;61.60;;;;;;4984158;28;45778;-67
2022/11/02 09:20:17;;;;;;;7.07;1.80;;;13.90;61.30;;;;;;4965598;28;46254;-67
2022/11/02 09:22:44;;;;;;;8.33;1.97;;;13.90;62.50;;;;;;4966238;28;45921;-67
2022/11/02 09:25:12;;;;;;;8.47;2.57;;;14.10;62.70;;;;;;4965483;28;47762;-67
2022/11/02 09:27:38;;;;;;;20.10;3.20;;;14.20;61.80;;;;;;4981987;28;45837;-67
2022/11/02 09:30:04;;;;;;;6.23;2.30;;;14.50;60.30;;;;;;4984965;28;46520;-67
2022/11/02 09:32:32;;;;;;;7.70;2.20;;;14.60;61.30;;;;;;4965270;28;46447;-67
2022/11/02 09:35:06;;;;;;;16.70;2.50;;;14.80;60.50;;;;;;4966519;28;48015;-67
2022/11/02 09:37:32;;;;;;;8.40;2.37;;;15.20;59.60;;;;;;4960101;28;46394;-67
2022/11/02 09:39:58;;;;;;;9.70;2.30;;;15.70;57.50;;;;;;4982602;28;46233;-67
2022/11/02 09:42:26;;;;;;;8.80;1.80;;;15.70;58.40;;;;;;4983490;28;46459;-67
2022/11/02 09:45:05;;;;;;;10.83;2.40;;;15.80;57.00;;;;;;4983084;28;46718;-67
2022/11/02 09:47:40;;;;;;;8.07;1.83;;;16.00;57.90;;;;;;4983296;28;46418;-68
2022/11/02 09:50:14;;;;;;;7.67;2.17;;;15.90;56.40;;;;;;4964550;28;46414;-67
2022/11/02 09:52:43;;;;;;;7.30;2.10;;;15.70;56.70;;;;;;4957568;28;46458;-67
2022/11/02 09:55:19;;;;;;;11.33;2.13;;;15.50;55.50;;;;;;4980256;28;46793;-68
2022/11/02 09:57:50;;;;;;;13.53;2.53;;;15.40;55.90;;;;;;4965278;28;46644;-66
2022/11/02 10:00:17;;;;;;;5.17;1.80;;;15.40;56.40;;;;;;4965782;28;46649;-67
2022/11/02 10:02:58;;;;;;;9.10;1.77;;;15.30;55.10;;;;;;4982600;28;46625;-67
2022/11/02 10:05:45;;;;;;;11.83;2.27;;;15.10;53.80;;;;;;4963929;28;47793;-67
2022/11/02 10:08:13;;;;;;;6.43;1.67;;;15.10;53.60;;;;;;4980622;28;46460;-67
2022/11/02 10:10:46;;;;;;;7.70;1.80;;;15.10;52.60;;;;;;4965763;28;46425;-67
2022/11/02 10:13:20;;;;;;;7.40;1.83;;;15.40;53.00;;;;;;4970384;28;46281;-67
2022/11/02 10:15:58;;;;;;;8.10;1.87;;;15.40;51.30;;;;;;4963686;28;46584;-67
2022/11/02 10:18:29;;;;;;;7.57;1.77;;;15.40;50.70;;;;;;4959658;28;46468;-67
2022/11/02 10:21:05;;;;;;;8.07;1.87;;;15.30;49.30;;;;;;4964825;28;46417;-67
2022/11/02 10:23:38;;;;;;;14.93;1.77;;;15.30;50.60;;;;;;4959293;28;46655;-67
2022/11/02 10:26:04;;;;;;;8.00;1.93;;;15.40;51.10;;;;;;4980297;28;47803;-67
2022/11/02 10:28:33;;;;;;;11.03;2.13;;;15.30;50.60;;;;;;4981701;28;45826;-67
2022/11/02 10:31:03;;;;;;;5.60;1.50;;;15.50;50.80;;;;;;4980883;28;46546;-68
2022/11/02 10:33:29;;;;;;;10.63;1.80;;;15.40;49.30;;;;;;4959542;28;46404;-67
2022/11/02 10:36:42;;;;;;;7.60;1.87;;;15.30;49.40;;;;;;4954953;28;49078;-67
2022/11/02 10:39:29;;;;;;;5.73;1.50;;;15.20;48.80;;;;;;4980884;28;46397;-67
2022/11/02 10:42:10;;;;;;;6.33;1.60;;;15.10;47.80;;;;;;4964293;28;46294;-67
2022/11/02 10:44:57;;;;;;;12.40;1.77;;;15.10;49.00;;;;;;4968643;28;46542;-67
2022/11/02 10:47:57;;;;;;;7.20;1.33;;;15.10;49.10;;;;;;4964723;28;48994;-67
2022/11/02 10:50:30;;;;;;;5.90;1.60;;;15.10;47.30;;;;;;4950115;28;46540;-67
2022/11/02 10:53:00;;;;;;;6.93;1.97;;;15.10;48.50;;;;;;4965835;28;46328;-67
2022/11/02 10:55:42;;;;;;;6.03;1.47;;;15.20;49.70;;;;;;4957527;28;45985;-68
2022/11/02 10:58:14;;;;;;;7.37;1.60;;;15.00;48.10;;;;;;4963490;28;48874;-67
2022/11/02 11:00:41;;;;;;;11.33;1.93;;;14.90;48.50;;;;;;4963041;28;46792;-67
2022/11/02 11:03:15;;;;;;;7.40;1.60;;;14.80;48.70;;;;;;4980279;28;46412;-67
2022/11/02 11:05:50;;;;;;;5.77;1.40;;;14.70;49.10;;;;;;4981310;28;46508;-67
2022/11/02 11:08:31;;;;;;;6.30;2.07;;;14.60;49.40;;;;;;4965938;28;47432;-67
2022/11/02 11:11:20;;;;;;;6.87;1.50;;;14.70;48.40;;;;;;4963490;28;46829;-68
2022/11/02 11:14:00;;;;;;;8.47;1.90;;;14.60;49.20;;;;;;4964183;28;46398;-67
2022/11/02 11:16:44;;;;;;;8.00;1.73;;;14.50;49.70;;;;;;4964139;28;46658;-67
2022/11/02 11:19:33;;;;;;;10.43;1.80;;;14.40;49.90;;;;;;4966503;28;46377;-67
2022/11/02 11:21:58;;;;;;;11.60;2.53;;;14.50;49.00;;;;;;4968047;28;46351;-67
2022/11/02 11:24:32;;;;;;;11.17;1.80;;;14.50;50.00;;;;;;4969414;28;46449;-66
2022/11/02 11:27:10;;;;;;;10.73;1.90;;;14.50;50.00;;;;;;4965266;28;46502;-67
2022/11/02 11:29:39;;;;;;;9.37;1.43;;;14.50;48.30;;;;;;4963498;28;46484;-67
2022/11/02 11:32:16;;;;;;;4.33;1.37;;;14.50;49.40;;;;;;4984357;28;46423;-67
2022/11/02 11:34:45;;;;;;;7.23;1.60;;;14.60;49.50;;;;;;4966003;28;46394;-67
2022/11/02 11:37:15;;;;;;;7.80;1.33;;;14.50;49.00;;;;;;4964483;28;46358;-66
2022/11/02 11:39:44;;;;;;;7.00;1.70;;;14.70;47.40;;;;;;4979639;28;47713;-66
2022/11/02 11:42:17;;;;;;;8.83;1.60;;;14.80;48.40;;;;;;4970426;28;46386;-66
2022/11/02 11:44:45;;;;;;;9.63;1.37;;;14.90;48.30;;;;;;4958649;28;46385;-67
2022/11/02 11:47:12;;;;;;;9.90;2.00;;;15.00;48.10;;;;;;4963389;28;46394;-66
2022/11/02 11:49:47;;;;;;;9.07;1.57;;;15.30;47.20;;;;;;4980500;28;48094;-66
2022/11/02 11:52:27;;;;;;;3.40;1.43;;;15.30;48.20;;;;;;4964049;28;46244;-67
2022/11/02 11:54:55;;;;;;;5.60;1.60;;;15.40;48.10;;;;;;4981183;28;45893;-67
2022/11/02 11:57:28;;;;;;;5.67;1.50;;;15.50;48.00;;;;;;4964854;28;46384;-66
2022/11/02 11:59:57;;;;;;;10.23;1.50;;;15.60;46.70;;;;;;4962392;28;48804;-67
2022/11/02 12:02:29;;;;;;;3.40;1.23;;;15.60;47.80;;;;;;4962940;28;46365;-66
2022/11/02 12:05:15;;;;;;;3.57;1.10;;;15.60;47.60;;;;;;4961695;28;46429;-68
2022/11/02 12:07:46;;;;;;;9.17;1.43;;;15.60;47.40;;;;;;4963431;28;46466;-66
2022/11/02 12:10:19;;;;;;;5.07;1.60;;;15.80;46.50;;;;;;4962400;28;46608;-67
2022/11/02 12:12:45;;;;;;;6.30;1.57;;;15.80;47.50;;;;;;4981385;28;45935;-67
2022/11/02 12:15:16;;;;;;;7.33;1.33;;;15.90;47.30;;;;;;4963091;28;46629;-67
2022/11/02 12:18:00;;;;;;;4.70;1.20;;;16.00;47.10;;;;;;4979532;28;46377;-67
2022/11/02 12:20:44;;;;;;;6.20;1.60;;;16.00;47.10;;;;;;4964510;28;48267;-70
2022/11/02 12:23:31;;;;;;;8.33;2.80;;;15.90;47.10;;;;;;4963195;28;46425;-66
2022/11/02 12:26:17;;;;;;;7.43;1.97;;;15.80;47.10;;;;;;4963668;28;46353;-69
2022/11/02 12:29:00;;;;;;;7.60;1.77;;;15.70;47.30;;;;;;4982058;28;46348;-70
2022/11/02 12:31:40;;;;;;;8.07;1.93;;;15.50;46.60;;;;;;4964186;28;48085;-67
2022/11/02 12:34:30;;;;;;;4.10;1.70;;;15.50;47.90;;;;;;4978125;28;46300;-67
2022/11/02 12:37:32;;;;;;;7.70;2.10;;;15.40;48.20;;;;;;4979462;28;46250;-67
2022/11/02 12:40:21;;;;;;;7.37;1.60;;;15.40;47.50;;;;;;4972739;28;46815;-67
2022/11/02 12:42:55;;;;;;;9.77;1.80;;;15.40;48.50;;;;;;4961746;28;46543;-67
2022/11/02 12:45:24;;;;;;;51.17;22.50;;;15.50;48.30;;;;;;4979612;28;46452;-67
2022/11/02 12:48:01;;;;;;;10.07;2.77;;;15.60;48.00;;;;;;4964431;28;45809;-69
2022/11/02 12:50:47;;;;;;;11.87;2.53;;;15.70;47.00;;;;;;4962290;28;46507;-67
2022/11/02 12:53:36;;;;;;;6.40;2.33;;;15.70;48.10;;;;;;4978522;28;48346;-68
2022/11/02 12:56:05;;;;;;;8.17;2.53;;;15.70;48.30;;;;;;4959135;28;46394;-68
2022/11/02 12:58:37;;;;;;;10.60;2.80;;;15.60;48.50;;;;;;4965768;28;46460;-69
2022/11/02 13:01:27;;;;;;;6.43;2.37;;;15.80;47.40;;;;;;4963651;28;46462;-67
2022/11/02 13:04:05;;;;;;;7.57;2.20;;;15.80;48.30;;;;;;4967207;28;47778;-66
2022/11/02 13:06:38;;;;;;;13.43;2.10;;;15.90;48.30;;;;;;4967381;28;46460;-67
2022/11/02 13:09:30;;;;;;;154.87;87.00;;;16.00;48.20;;;;;;4965172;28;46390;-67
2022/11/02 13:12:18;;;;;;;12.83;4.97;;;16.20;47.00;;;;;;4965886;28;46537;-69
2022/11/02 13:14:50;;;;;;;7.93;1.80;;;16.20;48.40;;;;;;4963215;28;48660;-67
2022/11/02 13:17:39;;;;;;;8.17;2.40;;;16.30;48.30;;;;;;4965713;28;46734;-66